createdAt,value
2017-11-30T00:00:00.781Z,1.80
2017-11-30T00:00:05.025Z,1.80
2017-11-30T00:00:09.060Z,1.80
2017-11-30T00:00:13.088Z,1.80
2017-11-30T00:00:26.972Z,1.80
2017-11-30T00:00:30.995Z,1.70
2017-11-30T00:00:35.844Z,1.80
2017-11-30T00:00:39.892Z,1.80
2017-11-30T00:00:43.932Z,1.80
2017-11-30T00:00:47.965Z,1.80
2017-11-30T00:00:51.969Z,1.80
2017-11-30T00:00:55.999Z,1.80
2017-11-30T00:01:00.798Z,1.80
2017-11-30T00:01:05.024Z,1.70
2017-11-30T00:01:09.270Z,1.80
2017-11-30T00:01:13.542Z,1.80
2017-11-30T00:01:17.812Z,1.80
2017-11-30T00:01:22.076Z,1.80
2017-11-30T00:01:26.343Z,1.80
2017-11-30T00:01:30.595Z,1.80
2017-11-30T00:01:34.868Z,1.80
2017-11-30T00:01:39.154Z,1.80
2017-11-30T00:01:43.419Z,1.80
2017-11-30T00:01:47.673Z,1.80
2017-11-30T00:01:51.954Z,1.80
2017-11-30T00:01:56.993Z,1.80
2017-11-30T00:02:02.007Z,1.80
2017-11-30T00:02:07.041Z,1.80
2017-11-30T00:02:11.319Z,1.80
2017-11-30T00:02:15.561Z,1.80
2017-11-30T00:02:19.845Z,1.80
2017-11-30T00:02:24.151Z,1.80
2017-11-30T00:02:28.418Z,1.80
2017-11-30T00:02:32.655Z,1.80
2017-11-30T00:02:36.928Z,1.80
2017-11-30T00:02:41.951Z,1.80
2017-11-30T00:02:46.966Z,1.80
2017-11-30T00:02:51.224Z,1.80
2017-11-30T00:02:55.497Z,1.80
2017-11-30T00:02:59.737Z,1.80
2017-11-30T00:03:03.998Z,1.80
2017-11-30T00:03:08.272Z,1.80
2017-11-30T00:03:13.308Z,1.80
2017-11-30T00:03:17.560Z,1.80
2017-11-30T00:03:21.801Z,1.80
2017-11-30T00:03:26.072Z,1.80
2017-11-30T00:03:31.100Z,1.80
2017-11-30T00:03:36.135Z,1.80
2017-11-30T00:03:40.384Z,1.80
2017-11-30T00:03:44.647Z,1.80
2017-11-30T00:03:48.896Z,1.80
2017-11-30T00:03:53.151Z,1.80
2017-11-30T00:03:57.427Z,1.80
2017-11-30T00:04:01.694Z,1.80
2017-11-30T00:04:05.960Z,1.80
2017-11-30T00:04:10.237Z,1.80
2017-11-30T00:04:15.263Z,1.80
2017-11-30T00:04:19.509Z,1.80
2017-11-30T00:04:23.773Z,1.80
2017-11-30T00:04:28.031Z,1.80
2017-11-30T00:04:33.065Z,1.80
2017-11-30T00:04:37.326Z,1.80
2017-11-30T00:04:41.600Z,1.80
2017-11-30T00:04:45.858Z,1.80
2017-11-30T00:04:50.096Z,1.80
2017-11-30T00:04:54.497Z,1.80
2017-11-30T00:04:58.747Z,1.80
2017-11-30T00:05:02.991Z,1.80
2017-11-30T00:05:07.244Z,1.80
2017-11-30T00:05:11.500Z,1.80
2017-11-30T00:05:15.744Z,1.80
2017-11-30T00:05:19.997Z,1.80
2017-11-30T00:05:24.271Z,1.80
2017-11-30T00:05:28.550Z,1.80
2017-11-30T00:05:33.581Z,1.80
2017-11-30T00:05:38.616Z,1.80
2017-11-30T00:05:42.880Z,1.80
2017-11-30T00:05:47.171Z,1.80
2017-11-30T00:05:51.440Z,1.80
2017-11-30T00:05:55.718Z,1.80
2017-11-30T00:05:59.970Z,1.80
2017-11-30T00:06:04.233Z,1.80
2017-11-30T00:06:08.514Z,1.80
2017-11-30T00:06:13.539Z,1.80
2017-11-30T00:06:17.803Z,1.80
2017-11-30T00:06:22.066Z,1.80
2017-11-30T00:06:26.331Z,1.80
2017-11-30T00:06:31.381Z,1.80
2017-11-30T00:06:35.644Z,1.80
2017-11-30T00:06:40.681Z,1.80
2017-11-30T00:06:44.952Z,1.80
2017-11-30T00:06:49.217Z,1.90
2017-11-30T00:06:53.472Z,1.80
2017-11-30T00:06:57.746Z,1.80
2017-11-30T00:07:02.013Z,1.80
2017-11-30T00:07:06.282Z,1.80
2017-11-30T00:07:11.295Z,1.80
2017-11-30T00:07:16.313Z,1.80
2017-11-30T00:07:20.560Z,1.80
2017-11-30T00:07:24.828Z,1.80
2017-11-30T00:07:29.114Z,1.80
2017-11-30T00:07:34.146Z,1.80
2017-11-30T00:07:38.425Z,1.80
2017-11-30T00:07:43.438Z,1.80
2017-11-30T00:07:48.482Z,1.80
2017-11-30T00:07:52.735Z,1.80
2017-11-30T00:07:56.984Z,1.80
2017-11-30T00:08:01.235Z,1.80
2017-11-30T00:08:05.517Z,1.80
2017-11-30T00:08:09.774Z,1.80
2017-11-30T00:08:14.090Z,1.80
2017-11-30T00:08:18.318Z,1.80
2017-11-30T00:08:22.594Z,1.80
2017-11-30T00:08:26.871Z,1.80
2017-11-30T00:08:31.133Z,1.80
2017-11-30T00:08:35.397Z,1.80
2017-11-30T00:08:39.676Z,1.80
2017-11-30T00:08:44.708Z,1.80
2017-11-30T00:08:49.709Z,1.80
2017-11-30T00:08:53.953Z,1.80
2017-11-30T00:08:58.212Z,1.80
2017-11-30T00:09:02.472Z,1.80
2017-11-30T00:09:06.743Z,1.80
2017-11-30T00:09:10.996Z,1.80
2017-11-30T00:09:16.051Z,1.80
2017-11-30T00:09:20.316Z,1.80
2017-11-30T00:09:25.613Z,1.80
2017-11-30T00:09:29.868Z,1.80
2017-11-30T00:09:34.149Z,1.80
2017-11-30T00:09:39.183Z,1.80
2017-11-30T00:09:43.449Z,1.80
2017-11-30T00:09:47.708Z,1.80
2017-11-30T00:09:51.970Z,1.80
2017-11-30T00:09:57.008Z,1.80
2017-11-30T00:10:01.275Z,1.80
2017-11-30T00:10:06.304Z,1.80
2017-11-30T00:10:11.317Z,1.80
2017-11-30T00:10:15.585Z,1.80
2017-11-30T00:10:19.901Z,1.80
2017-11-30T00:10:24.153Z,1.80
2017-11-30T00:10:28.437Z,1.80
2017-11-30T00:10:32.701Z,1.80
2017-11-30T00:10:36.976Z,1.80
2017-11-30T00:10:41.242Z,1.80
2017-11-30T00:10:45.655Z,1.80
2017-11-30T00:10:49.912Z,1.80
2017-11-30T00:10:54.187Z,1.80
2017-11-30T00:10:58.440Z,1.80
2017-11-30T00:11:02.707Z,1.80
2017-11-30T00:11:06.951Z,1.80
2017-11-30T00:11:11.220Z,1.80
2017-11-30T00:11:15.495Z,1.80
2017-11-30T00:11:19.756Z,1.80
2017-11-30T00:11:24.001Z,1.80
2017-11-30T00:11:28.265Z,1.80
2017-11-30T00:11:32.509Z,1.80
2017-11-30T00:11:36.788Z,1.80
2017-11-30T00:11:41.049Z,1.80
2017-11-30T00:11:45.313Z,1.80
2017-11-30T00:11:50.383Z,1.80
2017-11-30T00:11:54.634Z,1.80
2017-11-30T00:11:58.899Z,1.80
2017-11-30T00:12:03.160Z,1.80
2017-11-30T00:12:07.427Z,1.80
2017-11-30T00:12:11.696Z,1.80
2017-11-30T00:12:16.504Z,1.80
2017-11-30T00:12:20.758Z,1.80
2017-11-30T00:12:25.013Z,1.80
2017-11-30T00:12:29.295Z,1.80
2017-11-30T00:12:33.536Z,1.80
2017-11-30T00:12:38.102Z,1.80
2017-11-30T00:12:42.357Z,1.80
2017-11-30T00:12:46.625Z,1.80
2017-11-30T00:12:50.910Z,1.80
2017-11-30T00:12:55.171Z,1.80
2017-11-30T00:13:00.196Z,1.80
2017-11-30T00:13:04.463Z,1.80
2017-11-30T00:13:08.736Z,1.80
2017-11-30T00:13:13.004Z,1.80
2017-11-30T00:13:18.017Z,1.80
2017-11-30T00:13:23.038Z,1.80
2017-11-30T00:13:27.293Z,1.80
2017-11-30T00:13:31.545Z,1.80
2017-11-30T00:13:35.803Z,1.80
2017-11-30T00:13:40.079Z,1.80
2017-11-30T00:13:44.341Z,1.90
2017-11-30T00:13:49.365Z,1.90
2017-11-30T00:13:53.620Z,1.80
2017-11-30T00:13:57.990Z,1.90
2017-11-30T00:14:02.229Z,1.80
2017-11-30T00:14:06.501Z,1.90
2017-11-30T00:14:10.758Z,1.90
2017-11-30T00:14:15.791Z,1.90
2017-11-30T00:14:20.042Z,1.90
2017-11-30T00:14:24.324Z,1.90
2017-11-30T00:14:28.575Z,1.80
2017-11-30T00:14:33.601Z,1.90
2017-11-30T00:14:37.869Z,1.80
2017-11-30T00:14:42.116Z,1.90
2017-11-30T00:14:46.382Z,1.80
2017-11-30T00:14:50.649Z,1.90
2017-11-30T00:14:54.907Z,1.90
2017-11-30T00:14:59.164Z,1.90
2017-11-30T00:15:03.432Z,1.90
2017-11-30T00:15:07.693Z,1.90
2017-11-30T00:15:12.713Z,1.90
2017-11-30T00:15:17.749Z,1.90
2017-11-30T00:15:22.012Z,1.90
2017-11-30T00:15:26.280Z,1.90
2017-11-30T00:15:30.686Z,1.90
2017-11-30T00:15:34.995Z,1.90
2017-11-30T00:15:39.257Z,1.90
2017-11-30T00:15:43.533Z,1.90
2017-11-30T00:15:48.587Z,1.90
2017-11-30T00:15:52.885Z,1.90
2017-11-30T00:15:57.134Z,1.90
2017-11-30T00:16:01.386Z,1.90
2017-11-30T00:16:05.637Z,1.90
2017-11-30T00:16:09.943Z,1.90
2017-11-30T00:16:14.219Z,1.90
2017-11-30T00:16:18.484Z,1.90
2017-11-30T00:16:22.722Z,1.90
2017-11-30T00:16:26.969Z,1.90
2017-11-30T00:16:31.216Z,1.90
2017-11-30T00:16:35.465Z,1.90
2017-11-30T00:16:40.482Z,1.90
2017-11-30T00:16:44.764Z,1.90
2017-11-30T00:16:49.006Z,1.90
2017-11-30T00:16:54.025Z,1.90
2017-11-30T00:16:58.280Z,1.90
2017-11-30T00:17:02.532Z,1.90
2017-11-30T00:17:06.793Z,1.90
2017-11-30T00:17:11.840Z,1.90
2017-11-30T00:17:16.089Z,1.90
2017-11-30T00:17:20.338Z,1.90
2017-11-30T00:17:24.602Z,1.90
2017-11-30T00:17:29.661Z,1.90
2017-11-30T00:17:33.916Z,1.90
2017-11-30T00:17:38.166Z,1.90
2017-11-30T00:17:42.425Z,1.90
2017-11-30T00:17:47.474Z,1.90
2017-11-30T00:17:51.731Z,1.90
2017-11-30T00:17:55.992Z,2.00
2017-11-30T00:18:00.254Z,2.00
2017-11-30T00:18:05.267Z,2.00
2017-11-30T00:18:10.305Z,2.00
2017-11-30T00:18:15.355Z,2.00
2017-11-30T00:18:19.598Z,2.00
2017-11-30T00:18:23.860Z,2.00
2017-11-30T00:18:28.136Z,2.00
2017-11-30T00:18:33.146Z,2.00
2017-11-30T00:18:37.425Z,2.00
2017-11-30T00:18:42.462Z,2.00
2017-11-30T00:18:46.772Z,2.00
2017-11-30T00:18:51.026Z,2.00
2017-11-30T00:18:55.290Z,2.00
2017-11-30T00:19:00.354Z,2.00
2017-11-30T00:19:04.582Z,2.00
2017-11-30T00:19:08.854Z,2.00
2017-11-30T00:19:13.124Z,2.00
2017-11-30T00:19:17.365Z,2.00
2017-11-30T00:19:22.395Z,2.00
2017-11-30T00:19:27.397Z,2.00
2017-11-30T00:19:32.409Z,2.00
2017-11-30T00:19:36.682Z,2.00
2017-11-30T00:19:40.942Z,2.00
2017-11-30T00:19:45.197Z,2.00
2017-11-30T00:19:49.461Z,2.00
2017-11-30T00:19:53.729Z,2.00
2017-11-30T00:19:58.745Z,2.00
2017-11-30T00:20:03.776Z,2.00
2017-11-30T00:20:08.021Z,2.00
2017-11-30T00:20:12.283Z,2.00
2017-11-30T00:20:16.553Z,2.00
2017-11-30T00:20:20.811Z,2.00
2017-11-30T00:20:25.090Z,2.00
2017-11-30T00:20:29.332Z,2.00
2017-11-30T00:20:33.610Z,1.90
2017-11-30T00:20:37.871Z,1.90
2017-11-30T00:20:42.897Z,1.90
2017-11-30T00:20:47.161Z,1.90
2017-11-30T00:20:51.459Z,2.00
2017-11-30T00:20:55.724Z,2.00
2017-11-30T00:20:59.961Z,2.00
2017-11-30T00:21:04.238Z,1.90
2017-11-30T00:21:08.493Z,2.00
2017-11-30T00:21:13.531Z,2.00
2017-11-30T00:21:17.827Z,2.00
2017-11-30T00:21:22.076Z,2.00
2017-11-30T00:21:26.712Z,2.00
2017-11-30T00:21:30.949Z,2.00
2017-11-30T00:21:35.233Z,2.00
2017-11-30T00:21:39.499Z,2.00
2017-11-30T00:21:43.745Z,2.00
2017-11-30T00:21:47.992Z,2.00
2017-11-30T00:21:52.244Z,2.00
2017-11-30T00:21:56.504Z,2.00
2017-11-30T00:22:00.766Z,2.00
2017-11-30T00:22:05.058Z,2.00
2017-11-30T00:22:09.340Z,2.00
2017-11-30T00:22:13.595Z,2.00
2017-11-30T00:22:17.854Z,2.00
2017-11-30T00:22:22.117Z,2.00
2017-11-30T00:22:26.390Z,2.00
2017-11-30T00:22:30.646Z,2.00
2017-11-30T00:22:34.935Z,2.00
2017-11-30T00:22:39.182Z,2.00
2017-11-30T00:22:43.454Z,2.00
2017-11-30T00:22:47.729Z,2.00
2017-11-30T00:22:52.782Z,2.10
2017-11-30T00:22:57.033Z,2.10
2017-11-30T00:23:02.062Z,2.00
2017-11-30T00:23:07.080Z,2.10
2017-11-30T00:23:12.148Z,2.00
2017-11-30T00:23:16.387Z,2.10
2017-11-30T00:23:21.409Z,2.10
2017-11-30T00:23:26.428Z,2.10
2017-11-30T00:23:31.496Z,2.10
2017-11-30T00:23:35.736Z,2.10
2017-11-30T00:23:40.080Z,2.10
2017-11-30T00:23:45.099Z,2.10
2017-11-30T00:23:49.366Z,2.10
2017-11-30T00:23:53.613Z,2.10
2017-11-30T00:23:57.876Z,2.10
2017-11-30T00:24:02.139Z,2.10
2017-11-30T00:24:06.396Z,2.10
2017-11-30T00:24:10.663Z,2.10
2017-11-30T00:24:14.909Z,2.10
2017-11-30T00:24:19.157Z,2.10
2017-11-30T00:24:23.418Z,2.10
2017-11-30T00:24:27.695Z,2.10
2017-11-30T00:24:31.954Z,2.10
2017-11-30T00:24:36.214Z,2.10
2017-11-30T00:24:40.471Z,2.10
2017-11-30T00:24:45.504Z,2.10
2017-11-30T00:24:50.513Z,2.10
2017-11-30T00:24:55.530Z,2.10
2017-11-30T00:25:00.558Z,2.10
2017-11-30T00:25:05.585Z,2.10
2017-11-30T00:25:09.852Z,2.10
2017-11-30T00:25:14.136Z,2.10
2017-11-30T00:25:18.587Z,2.10
2017-11-30T00:25:22.859Z,2.10
2017-11-30T00:25:27.885Z,2.10
2017-11-30T00:25:32.163Z,2.10
2017-11-30T00:25:36.428Z,2.10
2017-11-30T00:25:40.690Z,2.10
2017-11-30T00:25:45.716Z,2.10
2017-11-30T00:25:49.984Z,2.10
2017-11-30T00:25:55.045Z,2.10
2017-11-30T00:25:59.321Z,2.10
2017-11-30T00:26:04.354Z,2.10
2017-11-30T00:26:08.627Z,2.10
2017-11-30T00:26:12.911Z,2.10
2017-11-30T00:26:17.189Z,2.10
2017-11-30T00:26:21.465Z,2.10
2017-11-30T00:26:25.744Z,2.10
2017-11-30T00:26:30.785Z,2.10
2017-11-30T00:26:35.052Z,2.10
2017-11-30T00:26:39.299Z,2.10
2017-11-30T00:26:43.575Z,2.10
2017-11-30T00:26:47.849Z,2.10
2017-11-30T00:26:52.123Z,2.10
2017-11-30T00:26:56.369Z,2.10
2017-11-30T00:27:01.392Z,2.10
2017-11-30T00:27:06.418Z,2.10
2017-11-30T00:27:10.690Z,2.10
2017-11-30T00:27:14.951Z,2.10
2017-11-30T00:27:19.220Z,2.10
2017-11-30T00:27:24.248Z,2.10
2017-11-30T00:27:28.541Z,2.10
2017-11-30T00:27:32.827Z,2.10
2017-11-30T00:27:37.846Z,2.10
2017-11-30T00:27:42.119Z,2.10
2017-11-30T00:27:46.396Z,2.10
2017-11-30T00:27:50.992Z,2.10
2017-11-30T00:27:55.232Z,2.10
2017-11-30T00:27:59.472Z,2.10
2017-11-30T00:28:03.738Z,2.10
2017-11-30T00:28:08.771Z,2.10
2017-11-30T00:28:13.795Z,2.10
2017-11-30T00:28:18.804Z,2.10
2017-11-30T00:28:23.089Z,2.10
2017-11-30T00:28:27.347Z,2.10
2017-11-30T00:28:31.611Z,2.10
2017-11-30T00:28:36.629Z,2.10
2017-11-30T00:28:41.660Z,2.10
2017-11-30T00:28:45.933Z,2.10
2017-11-30T00:28:50.952Z,2.10
2017-11-30T00:28:55.981Z,2.10
2017-11-30T00:29:01.022Z,2.10
2017-11-30T00:29:05.269Z,2.10
2017-11-30T00:29:10.292Z,2.10
2017-11-30T00:29:14.562Z,2.10
2017-11-30T00:29:18.812Z,2.10
2017-11-30T00:29:23.856Z,2.10
2017-11-30T00:29:28.127Z,2.10
2017-11-30T00:29:32.373Z,2.10
2017-11-30T00:29:36.657Z,2.10
2017-11-30T00:29:41.668Z,2.10
2017-11-30T00:29:46.689Z,2.10
2017-11-30T00:29:51.724Z,2.10
2017-11-30T00:29:55.993Z,2.10
2017-11-30T00:30:01.023Z,2.10
2017-11-30T00:30:06.042Z,2.10
2017-11-30T00:30:11.067Z,2.10
2017-11-30T00:30:16.074Z,2.10
2017-11-30T00:30:21.103Z,2.10
2017-11-30T00:30:25.356Z,2.10
2017-11-30T00:30:29.619Z,2.10
2017-11-30T00:30:33.864Z,2.10
2017-11-30T00:30:38.129Z,2.10
2017-11-30T00:30:42.382Z,2.10
2017-11-30T00:30:47.418Z,2.10
2017-11-30T00:30:52.455Z,2.10
2017-11-30T00:30:56.725Z,2.10
2017-11-30T00:31:01.793Z,2.10
2017-11-30T00:31:06.045Z,2.10
2017-11-30T00:31:10.327Z,2.10
2017-11-30T00:31:14.597Z,2.10
2017-11-30T00:31:18.868Z,2.10
2017-11-30T00:31:23.889Z,2.10
2017-11-30T00:31:28.158Z,2.10
2017-11-30T00:31:33.195Z,2.20
2017-11-30T00:31:38.215Z,2.20
2017-11-30T00:31:42.483Z,2.10
2017-11-30T00:31:46.743Z,2.20
2017-11-30T00:31:51.020Z,2.20
2017-11-30T00:31:55.282Z,2.10
2017-11-30T00:31:59.539Z,2.10
2017-11-30T00:32:03.786Z,2.10
2017-11-30T00:32:08.057Z,2.10
2017-11-30T00:32:12.349Z,2.10
2017-11-30T00:32:16.604Z,2.10
2017-11-30T00:32:21.631Z,2.10
2017-11-30T00:32:26.929Z,2.10
2017-11-30T00:32:31.181Z,2.10
2017-11-30T00:32:35.432Z,2.10
2017-11-30T00:32:39.703Z,2.10
2017-11-30T00:32:43.984Z,2.10
2017-11-30T00:32:48.241Z,2.10
2017-11-30T00:32:52.514Z,2.10
2017-11-30T00:32:56.778Z,2.10
2017-11-30T00:33:01.030Z,2.10
2017-11-30T00:33:05.320Z,2.20
2017-11-30T00:33:09.591Z,2.20
2017-11-30T00:33:13.862Z,2.10
2017-11-30T00:33:18.882Z,2.10
2017-11-30T00:33:23.901Z,2.10
2017-11-30T00:33:28.182Z,2.10
2017-11-30T00:33:32.450Z,2.20
2017-11-30T00:33:36.722Z,2.20
2017-11-30T00:33:40.989Z,2.10
2017-11-30T00:33:45.235Z,2.20
2017-11-30T00:33:50.324Z,2.20
2017-11-30T00:33:55.358Z,2.20
2017-11-30T00:33:59.603Z,2.20
2017-11-30T00:34:03.866Z,2.20
2017-11-30T00:34:08.128Z,2.20
2017-11-30T00:34:13.165Z,2.20
2017-11-30T00:34:17.417Z,2.20
2017-11-30T00:34:21.697Z,2.20
2017-11-30T00:34:25.941Z,2.20
2017-11-30T00:34:30.968Z,2.20
2017-11-30T00:34:35.981Z,2.20
2017-11-30T00:34:41.018Z,2.20
2017-11-30T00:34:46.030Z,2.20
2017-11-30T00:34:51.063Z,2.20
2017-11-30T00:34:55.336Z,2.20
2017-11-30T00:35:00.376Z,2.20
2017-11-30T00:35:04.649Z,2.20
2017-11-30T00:35:08.904Z,2.20
2017-11-30T00:35:13.176Z,2.10
2017-11-30T00:35:18.211Z,2.20
2017-11-30T00:35:22.472Z,2.10
2017-11-30T00:35:26.730Z,2.20
2017-11-30T00:35:30.984Z,2.10
2017-11-30T00:35:36.036Z,2.20
2017-11-30T00:35:40.327Z,2.20
2017-11-30T00:35:44.574Z,2.20
2017-11-30T00:35:48.838Z,2.20
2017-11-30T00:35:53.092Z,2.20
2017-11-30T00:35:58.125Z,2.20
2017-11-30T00:36:03.142Z,2.20
2017-11-30T00:36:08.157Z,2.20
2017-11-30T00:36:13.195Z,2.20
2017-11-30T00:36:18.217Z,2.20
2017-11-30T00:36:22.461Z,2.20
2017-11-30T00:36:26.727Z,2.20
2017-11-30T00:36:30.977Z,2.20
2017-11-30T00:36:35.236Z,2.20
2017-11-30T00:36:39.507Z,2.20
2017-11-30T00:36:43.764Z,2.20
2017-11-30T00:36:48.071Z,2.20
2017-11-30T00:36:52.287Z,2.20
2017-11-30T00:36:57.302Z,2.20
2017-11-30T00:37:01.575Z,2.20
2017-11-30T00:37:05.821Z,2.20
2017-11-30T00:37:10.090Z,2.20
2017-11-30T00:37:14.338Z,2.20
2017-11-30T00:37:18.611Z,2.20
2017-11-30T00:37:23.626Z,2.20
2017-11-30T00:37:28.640Z,2.30
2017-11-30T00:37:33.656Z,2.20
2017-11-30T00:37:38.101Z,2.30
2017-11-30T00:37:42.386Z,2.20
2017-11-30T00:37:46.637Z,2.20
2017-11-30T00:37:50.881Z,2.30
2017-11-30T00:37:55.137Z,2.30
2017-11-30T00:37:59.389Z,2.30
2017-11-30T00:38:03.642Z,2.30
2017-11-30T00:38:07.923Z,2.30
2017-11-30T00:38:12.190Z,2.30
2017-11-30T00:38:17.217Z,2.30
2017-11-30T00:38:21.483Z,2.30
2017-11-30T00:38:25.745Z,2.30
2017-11-30T00:38:30.131Z,2.30
2017-11-30T00:38:34.380Z,2.30
2017-11-30T00:38:38.627Z,2.30
2017-11-30T00:38:42.933Z,2.30
2017-11-30T00:38:47.182Z,2.30
2017-11-30T00:38:51.443Z,2.30
2017-11-30T00:38:55.711Z,2.30
2017-11-30T00:38:59.981Z,2.30
2017-11-30T00:39:04.243Z,2.30
2017-11-30T00:39:08.485Z,2.30
2017-11-30T00:39:13.508Z,2.30
2017-11-30T00:39:17.781Z,2.30
2017-11-30T00:39:22.047Z,2.30
2017-11-30T00:39:26.299Z,2.30
2017-11-30T00:39:30.559Z,2.30
2017-11-30T00:39:34.822Z,2.30
2017-11-30T00:39:39.873Z,2.30
2017-11-30T00:39:44.134Z,2.30
2017-11-30T00:39:49.143Z,2.30
2017-11-30T00:39:53.417Z,2.30
2017-11-30T00:39:57.690Z,2.30
2017-11-30T00:40:01.952Z,2.30
2017-11-30T00:40:06.198Z,2.30
2017-11-30T00:40:10.450Z,2.30
2017-11-30T00:40:14.718Z,2.30
2017-11-30T00:40:18.993Z,2.30
2017-11-30T00:40:23.264Z,2.30
2017-11-30T00:40:27.504Z,2.30
2017-11-30T00:40:31.763Z,2.30
2017-11-30T00:40:37.317Z,2.30
2017-11-30T00:40:41.586Z,2.30
2017-11-30T00:40:46.597Z,2.30
2017-11-30T00:40:51.611Z,2.30
2017-11-30T00:40:55.864Z,2.30
2017-11-30T00:41:00.128Z,2.30
2017-11-30T00:41:05.149Z,2.30
2017-11-30T00:41:10.193Z,2.30
2017-11-30T00:41:14.462Z,2.30
2017-11-30T00:41:18.721Z,2.30
2017-11-30T00:41:22.997Z,2.30
2017-11-30T00:41:27.253Z,2.30
2017-11-30T00:41:32.295Z,2.30
2017-11-30T00:41:37.339Z,2.30
2017-11-30T00:41:41.601Z,2.30
2017-11-30T00:41:46.634Z,2.30
2017-11-30T00:41:50.924Z,2.30
2017-11-30T00:41:55.951Z,2.30
2017-11-30T00:42:00.206Z,2.30
2017-11-30T00:42:04.470Z,2.30
2017-11-30T00:42:08.737Z,2.30
2017-11-30T00:42:24.993Z,2.30
2017-11-30T00:42:41.938Z,2.40
2017-11-30T00:42:58.165Z,2.30
2017-11-30T00:43:14.291Z,2.30
2017-11-30T00:43:31.227Z,2.30
2017-11-30T00:43:35.495Z,2.30
2017-11-30T00:43:39.748Z,2.30
2017-11-30T00:43:44.010Z,2.30
2017-11-30T00:43:48.283Z,2.30
2017-11-30T00:43:53.320Z,2.30
2017-11-30T00:44:09.426Z,2.30
2017-11-30T00:44:25.669Z,2.30
2017-11-30T00:44:34.541Z,2.40
2017-11-30T00:44:44.583Z,2.30
2017-11-30T00:44:48.870Z,2.40
2017-11-30T00:44:53.144Z,2.30
2017-11-30T00:44:57.403Z,2.30
2017-11-30T00:45:02.432Z,2.30
2017-11-30T00:45:07.440Z,2.30
2017-11-30T00:45:12.508Z,2.40
2017-11-30T00:45:16.789Z,2.30
2017-11-30T00:45:21.056Z,2.30
2017-11-30T00:45:25.309Z,2.40
2017-11-30T00:45:29.569Z,2.30
2017-11-30T00:45:34.609Z,2.40
2017-11-30T00:45:38.900Z,2.30
2017-11-30T00:45:43.175Z,2.40
2017-11-30T00:45:48.201Z,2.40
2017-11-30T00:45:53.239Z,2.40
2017-11-30T00:45:57.498Z,2.30
2017-11-30T00:46:01.778Z,2.40
2017-11-30T00:46:06.047Z,2.30
2017-11-30T00:46:10.286Z,2.30
2017-11-30T00:46:14.556Z,2.40
2017-11-30T00:46:18.808Z,2.30
2017-11-30T00:46:23.867Z,2.40
2017-11-30T00:46:28.151Z,2.40
2017-11-30T00:46:32.418Z,2.40
2017-11-30T00:46:36.704Z,2.40
2017-11-30T00:46:40.979Z,2.40
2017-11-30T00:46:45.235Z,2.40
2017-11-30T00:46:50.273Z,2.40
2017-11-30T00:46:55.307Z,2.40
2017-11-30T00:46:59.560Z,2.40
2017-11-30T00:47:03.822Z,2.40
2017-11-30T00:47:08.068Z,2.40
2017-11-30T00:47:12.383Z,2.40
2017-11-30T00:47:17.401Z,2.40
2017-11-30T00:47:22.443Z,2.30
2017-11-30T00:47:26.708Z,2.40
2017-11-30T00:47:30.999Z,2.40
2017-11-30T00:47:35.253Z,2.40
2017-11-30T00:47:39.510Z,2.40
2017-11-30T00:47:44.559Z,2.40
2017-11-30T00:47:48.823Z,2.40
2017-11-30T00:47:53.070Z,2.40
2017-11-30T00:47:57.349Z,2.40
2017-11-30T00:48:01.838Z,2.40
2017-11-30T00:48:06.871Z,2.40
2017-11-30T00:48:11.891Z,2.40
2017-11-30T00:48:16.932Z,2.40
2017-11-30T00:48:21.204Z,2.40
2017-11-30T00:48:26.240Z,2.40
2017-11-30T00:48:30.504Z,2.40
2017-11-30T00:48:34.765Z,2.40
2017-11-30T00:48:39.229Z,2.40
2017-11-30T00:48:44.309Z,2.40
2017-11-30T00:48:48.573Z,2.40
2017-11-30T00:48:52.839Z,2.40
2017-11-30T00:48:57.103Z,2.40
2017-11-30T00:49:01.368Z,2.40
2017-11-30T00:49:05.697Z,2.40
2017-11-30T00:49:09.954Z,2.40
2017-11-30T00:49:14.987Z,2.40
2017-11-30T00:49:19.244Z,2.40
2017-11-30T00:49:23.497Z,2.40
2017-11-30T00:49:27.753Z,2.40
2017-11-30T00:49:32.005Z,2.40
2017-11-30T00:49:36.548Z,2.40
2017-11-30T00:49:40.805Z,2.40
2017-11-30T00:49:45.046Z,2.40
2017-11-30T00:49:49.335Z,2.40
2017-11-30T00:49:53.590Z,2.40
2017-11-30T00:49:57.847Z,2.40
2017-11-30T00:50:02.113Z,2.40
2017-11-30T00:50:06.380Z,2.40
2017-11-30T00:50:11.407Z,2.40
2017-11-30T00:50:16.426Z,2.40
2017-11-30T00:50:21.480Z,2.40
2017-11-30T00:50:25.789Z,2.40
2017-11-30T00:50:30.024Z,2.40
2017-11-30T00:50:34.292Z,2.40
2017-11-30T00:50:38.550Z,2.40
2017-11-30T00:50:42.807Z,2.30
2017-11-30T00:50:47.057Z,2.40
2017-11-30T00:50:51.360Z,2.40
2017-11-30T00:50:56.395Z,2.40
2017-11-30T00:51:00.653Z,2.40
2017-11-30T00:51:05.759Z,2.40
2017-11-30T00:51:10.456Z,2.40
2017-11-30T00:51:14.693Z,2.40
2017-11-30T00:51:19.713Z,2.40
2017-11-30T00:51:23.978Z,2.40
2017-11-30T00:51:28.253Z,2.40
2017-11-30T00:51:32.494Z,2.40
2017-11-30T00:51:36.768Z,2.40
2017-11-30T00:51:41.029Z,2.40
2017-11-30T00:51:45.297Z,2.40
2017-11-30T00:51:49.539Z,2.40
2017-11-30T00:51:53.800Z,2.40
2017-11-30T00:51:58.058Z,2.40
2017-11-30T00:52:02.310Z,2.40
2017-11-30T00:52:07.325Z,2.40
2017-11-30T00:52:12.352Z,2.40
2017-11-30T00:52:16.617Z,2.40
2017-11-30T00:52:20.888Z,2.40
2017-11-30T00:52:25.146Z,2.50
2017-11-30T00:52:30.176Z,2.40
2017-11-30T00:52:34.437Z,2.40
2017-11-30T00:52:38.868Z,2.40
2017-11-30T00:52:43.136Z,2.40
2017-11-30T00:52:47.393Z,2.40
2017-11-30T00:52:51.640Z,2.40
2017-11-30T00:52:55.895Z,2.40
2017-11-30T00:53:00.215Z,2.40
2017-11-30T00:53:04.467Z,2.40
2017-11-30T00:53:09.481Z,2.40
2017-11-30T00:53:13.747Z,2.40
2017-11-30T00:53:18.061Z,2.40
2017-11-30T00:53:22.310Z,2.40
2017-11-30T00:53:26.578Z,2.40
2017-11-30T00:53:30.825Z,2.40
2017-11-30T00:53:35.077Z,2.40
2017-11-30T00:53:39.343Z,2.40
2017-11-30T00:53:43.598Z,2.40
2017-11-30T00:53:48.613Z,2.40
2017-11-30T00:53:53.634Z,2.40
2017-11-30T00:53:58.640Z,2.30
2017-11-30T00:54:02.910Z,2.40
2017-11-30T00:54:07.166Z,2.40
2017-11-30T00:54:11.446Z,2.40
2017-11-30T00:54:16.467Z,2.40
2017-11-30T00:54:21.500Z,2.40
2017-11-30T00:54:25.752Z,2.30
2017-11-30T00:54:30.025Z,2.40
2017-11-30T00:54:34.285Z,2.40
2017-11-30T00:54:39.315Z,2.40
2017-11-30T00:54:44.333Z,2.40
2017-11-30T00:54:48.599Z,2.40
2017-11-30T00:54:52.853Z,2.40
2017-11-30T00:54:57.140Z,2.40
2017-11-30T00:55:02.163Z,2.40
2017-11-30T00:55:06.424Z,2.40
2017-11-30T00:55:10.724Z,2.40
2017-11-30T00:55:14.997Z,2.40
2017-11-30T00:55:19.272Z,2.40
2017-11-30T00:55:23.547Z,2.40
2017-11-30T00:55:28.568Z,2.40
2017-11-30T00:55:32.834Z,2.40
2017-11-30T00:55:37.077Z,2.40
2017-11-30T00:55:41.337Z,2.40
2017-11-30T00:55:45.588Z,2.50
2017-11-30T00:55:49.848Z,2.40
2017-11-30T00:55:54.111Z,2.40
2017-11-30T00:55:58.360Z,2.50
2017-11-30T00:56:02.619Z,2.40
2017-11-30T00:56:06.894Z,2.50
2017-11-30T00:56:11.151Z,2.50
2017-11-30T00:56:15.406Z,2.50
2017-11-30T00:56:19.672Z,2.40
2017-11-30T00:56:24.704Z,2.40
2017-11-30T00:56:28.971Z,2.40
2017-11-30T00:56:33.223Z,2.40
2017-11-30T00:56:37.473Z,2.40
2017-11-30T00:56:42.511Z,2.40
2017-11-30T00:56:47.521Z,2.40
2017-11-30T00:56:52.570Z,2.40
2017-11-30T00:56:56.828Z,2.40
2017-11-30T00:57:01.081Z,2.40
2017-11-30T00:57:05.351Z,2.40
2017-11-30T00:57:10.377Z,2.40
2017-11-30T00:57:14.686Z,2.40
2017-11-30T00:57:18.936Z,2.40
2017-11-30T00:57:23.194Z,2.40
2017-11-30T00:57:27.441Z,2.40
2017-11-30T00:57:31.709Z,2.40
2017-11-30T00:57:35.960Z,2.40
2017-11-30T00:57:40.991Z,2.40
2017-11-30T00:57:45.281Z,2.40
2017-11-30T00:57:50.293Z,2.40
2017-11-30T00:57:55.309Z,2.40
2017-11-30T00:58:00.335Z,2.40
2017-11-30T00:58:05.342Z,2.40
2017-11-30T00:58:10.368Z,2.30
2017-11-30T00:58:15.393Z,2.30
2017-11-30T00:58:20.410Z,2.40
2017-11-30T00:58:25.436Z,2.30
2017-11-30T00:58:30.471Z,2.30
2017-11-30T00:58:34.721Z,2.40
2017-11-30T00:58:38.989Z,2.30
2017-11-30T00:58:43.233Z,2.40
2017-11-30T00:58:48.260Z,2.30
2017-11-30T00:58:52.529Z,2.30
2017-11-30T00:58:56.796Z,2.30
2017-11-30T00:59:01.033Z,2.40
2017-11-30T00:59:05.312Z,2.40
2017-11-30T00:59:09.559Z,2.40
2017-11-30T00:59:14.585Z,2.40
2017-11-30T00:59:19.597Z,2.40
2017-11-30T00:59:24.623Z,2.30
2017-11-30T00:59:29.782Z,2.30
2017-11-30T00:59:34.019Z,2.30
2017-11-30T00:59:38.265Z,2.40
2017-11-30T00:59:42.540Z,2.30
2017-11-30T00:59:47.572Z,2.30
2017-11-30T00:59:51.821Z,2.30
2017-11-30T00:59:56.079Z,2.40
2017-11-30T01:00:00.361Z,2.40
2017-11-30T01:00:05.375Z,2.30
2017-11-30T01:00:10.414Z,2.40
2017-11-30T01:00:14.658Z,2.30
2017-11-30T01:00:18.921Z,2.40
2017-11-30T01:00:23.201Z,2.40
2017-11-30T01:00:27.476Z,2.30
2017-11-30T01:00:32.515Z,2.40
2017-11-30T01:00:37.545Z,2.40
2017-11-30T01:00:42.567Z,2.30
2017-11-30T01:00:46.847Z,2.40
2017-11-30T01:00:51.881Z,2.30
2017-11-30T01:00:56.915Z,2.40
2017-11-30T01:01:01.184Z,2.40
2017-11-30T01:01:06.269Z,2.40
2017-11-30T01:01:10.571Z,2.40